8TN0 weather

Le Bonheur Medical Center Heliport
Memphis, Tennessee, United States

Public forecast

Using degrees Fahrenheit for public forecast. Weather courtesy of forecast.io.

METAR (pilot weather report)

Closest report is Memphis International Airport, 3.8 nm (7.0 km) NE. Retrieved 2019/08/23 18:54 UTC (11 minutes ago):

KMEM 231854Z 35006KT 10SM BKN035 BKN075 BKN110 31/24 A2999 RMK AO2 SLP150 T03060239

TAF (pilot weather forecast)

Closest forecast is Memphis International Airport, 3.8 nm (7.0 km) NE. Retrieved 2019/08/23 18:40 UTC (25 minutes ago):

TAF KMEM 231737Z 2318/2424 06005KT P6SM SCT025 BKN100 FM232100 05006KT P6SM VCTS FEW035CB BKN040 FM240000 05006KT P6SM SCT040 BKN150 FM240900 05005KT P6SM VCSH SCT009 OVC015 TEMPO 2410/2413 5SM -SHRA BR BKN009 FM241700 06006KT P6SM SCT015 BKN025 FM242100 06007KT P6SM VCTS BKN035CB